sensor_id;sensor_type;location;lat;lon;timestamp;P1;durP1;ratioP1;P2;durP2;ratioP2
301;SDS011;135;46.256;20.146;2022-07-23T00:00:47;70.75;;;67.35;;
301;SDS011;135;46.256;20.146;2022-07-23T00:03:14;70.93;;;67.53;;
301;SDS011;135;46.256;20.146;2022-07-23T00:05:43;68.40;;;65.10;;
301;SDS011;135;46.256;20.146;2022-07-23T00:08:10;69.15;;;65.82;;
301;SDS011;135;46.256;20.146;2022-07-23T00:10:38;73.78;;;70.22;;
301;SDS011;135;46.256;20.146;2022-07-23T00:13:05;68.78;;;65.47;;
301;SDS011;135;46.256;20.146;2022-07-23T00:15:32;75.43;;;71.78;;
301;SDS011;135;46.256;20.146;2022-07-23T00:18:00;69.82;;;66.43;;
301;SDS011;135;46.256;20.146;2022-07-23T00:20:28;68.68;;;65.38;;
301;SDS011;135;46.256;20.146;2022-07-23T00:22:56;67.60;;;64.30;;
301;SDS011;135;46.256;20.146;2022-07-23T00:25:24;67.38;;;64.07;;
301;SDS011;135;46.256;20.146;2022-07-23T00:27:51;68.00;;;64.70;;
301;SDS011;135;46.256;20.146;2022-07-23T00:30:18;70.63;;;67.22;;
301;SDS011;135;46.256;20.146;2022-07-23T00:32:46;67.07;;;63.85;;
301;SDS011;135;46.256;20.146;2022-07-23T00:35:14;88.88;;;84.57;;
301;SDS011;135;46.256;20.146;2022-07-23T00:37:41;68.85;;;65.55;;
301;SDS011;135;46.256;20.146;2022-07-23T00:40:11;81.03;;;77.13;;
301;SDS011;135;46.256;20.146;2022-07-23T00:42:38;79.65;;;75.80;;
301;SDS011;135;46.256;20.146;2022-07-23T00:45:06;68.85;;;65.55;;
301;SDS011;135;46.256;20.146;2022-07-23T00:47:34;73.22;;;69.70;;
301;SDS011;135;46.256;20.146;2022-07-23T00:50:01;65.60;;;62.40;;
301;SDS011;135;46.256;20.146;2022-07-23T00:52:29;68.03;;;64.72;;
301;SDS011;135;46.256;20.146;2022-07-23T00:54:58;66.67;;;63.47;;
301;SDS011;135;46.256;20.146;2022-07-23T00:57:27;65.40;;;62.20;;
301;SDS011;135;46.256;20.146;2022-07-23T00:59:54;73.78;;;70.20;;
301;SDS011;135;46.256;20.146;2022-07-23T01:02:23;80.57;;;76.68;;
301;SDS011;135;46.256;20.146;2022-07-23T01:04:50;86.20;;;82.05;;
301;SDS011;135;46.256;20.146;2022-07-23T01:07:18;72.43;;;68.93;;
301;SDS011;135;46.256;20.146;2022-07-23T01:09:45;66.82;;;63.60;;
301;SDS011;135;46.256;20.146;2022-07-23T01:12:13;65.35;;;62.17;;
301;SDS011;135;46.256;20.146;2022-07-23T01:14:41;71.80;;;68.33;;
301;SDS011;135;46.256;20.146;2022-07-23T01:17:09;64.53;;;61.40;;
301;SDS011;135;46.256;20.146;2022-07-23T01:19:36;66.72;;;63.50;;
301;SDS011;135;46.256;20.146;2022-07-23T01:22:03;65.90;;;62.70;;
301;SDS011;135;46.256;20.146;2022-07-23T01:24:32;69.97;;;66.57;;
301;SDS011;135;46.256;20.146;2022-07-23T01:27:00;76.55;;;72.85;;
301;SDS011;135;46.256;20.146;2022-07-23T01:29:27;80.80;;;76.90;;
301;SDS011;135;46.256;20.146;2022-07-23T01:31:54;80.75;;;76.85;;
301;SDS011;135;46.256;20.146;2022-07-23T01:34:21;69.50;;;66.15;;
301;SDS011;135;46.256;20.146;2022-07-23T01:36:49;88.88;;;84.57;;
301;SDS011;135;46.256;20.146;2022-07-23T01:39:16;68.90;;;65.60;;
301;SDS011;135;46.256;20.146;2022-07-23T01:41:45;75.28;;;71.68;;
301;SDS011;135;46.256;20.146;2022-07-23T01:44:13;69.60;;;66.20;;
301;SDS011;135;46.256;20.146;2022-07-23T01:46:40;80.78;;;76.88;;
301;SDS011;135;46.256;20.146;2022-07-23T01:49:08;67.50;;;64.22;;
301;SDS011;135;46.256;20.146;2022-07-23T01:51:35;65.28;;;62.08;;
301;SDS011;135;46.256;20.146;2022-07-23T01:54:23;69.13;;;65.80;;
301;SDS011;135;46.256;20.146;2022-07-23T01:56:51;67.57;;;64.28;;
301;SDS011;135;46.256;20.146;2022-07-23T01:59:19;78.70;;;74.90;;
301;SDS011;135;46.256;20.146;2022-07-23T02:01:46;68.43;;;65.13;;
301;SDS011;135;46.256;20.146;2022-07-23T02:04:15;68.18;;;64.88;;
301;SDS011;135;46.256;20.146;2022-07-23T02:06:43;64.93;;;61.80;;
301;SDS011;135;46.256;20.146;2022-07-23T02:09:10;69.50;;;66.10;;
301;SDS011;135;46.256;20.146;2022-07-23T02:11:38;68.05;;;64.75;;
301;SDS011;135;46.256;20.146;2022-07-23T02:14:06;78.35;;;74.55;;
301;SDS011;135;46.256;20.146;2022-07-23T02:16:34;66.70;;;63.50;;
301;SDS011;135;46.256;20.146;2022-07-23T02:19:02;76.00;;;72.32;;
301;SDS011;135;46.256;20.146;2022-07-23T02:21:30;65.80;;;62.60;;
301;SDS011;135;46.256;20.146;2022-07-23T02:23:57;66.30;;;63.10;;
301;SDS011;135;46.256;20.146;2022-07-23T02:26:24;71.90;;;68.40;;
301;SDS011;135;46.256;20.146;2022-07-23T02:28:51;74.70;;;71.10;;
301;SDS011;135;46.256;20.146;2022-07-23T02:31:21;66.32;;;63.13;;
301;SDS011;135;46.256;20.146;2022-07-23T02:33:48;67.70;;;64.40;;
301;SDS011;135;46.256;20.146;2022-07-23T02:36:16;65.80;;;62.60;;
301;SDS011;135;46.256;20.146;2022-07-23T02:38:44;85.05;;;80.95;;
301;SDS011;135;46.256;20.146;2022-07-23T02:41:11;73.80;;;70.22;;
301;SDS011;135;46.256;20.146;2022-07-23T02:43:38;66.65;;;63.45;;
301;SDS011;135;46.256;20.146;2022-07-23T02:46:05;65.28;;;62.13;;
301;SDS011;135;46.256;20.146;2022-07-23T02:48:34;77.50;;;73.75;;
301;SDS011;135;46.256;20.146;2022-07-23T02:51:02;75.85;;;72.15;;
301;SDS011;135;46.256;20.146;2022-07-23T02:53:29;75.90;;;72.25;;
301;SDS011;135;46.256;20.146;2022-07-23T02:55:56;64.07;;;60.97;;
301;SDS011;135;46.256;20.146;2022-07-23T02:58:23;77.27;;;73.57;;
301;SDS011;135;46.256;20.146;2022-07-23T03:00:51;65.95;;;62.75;;
301;SDS011;135;46.256;20.146;2022-07-23T03:03:18;76.78;;;73.07;;
301;SDS011;135;46.256;20.146;2022-07-23T03:05:47;67.40;;;64.10;;
301;SDS011;135;46.256;20.146;2022-07-23T03:08:15;76.18;;;72.47;;
301;SDS011;135;46.256;20.146;2022-07-23T03:10:42;76.07;;;72.37;;
301;SDS011;135;46.256;20.146;2022-07-23T03:13:09;85.13;;;81.03;;
301;SDS011;135;46.256;20.146;2022-07-23T03:15:37;81.18;;;77.25;;
301;SDS011;135;46.256;20.146;2022-07-23T03:18:04;83.60;;;79.60;;
301;SDS011;135;46.256;20.146;2022-07-23T03:20:31;71.50;;;68.05;;
301;SDS011;135;46.256;20.146;2022-07-23T03:23:00;80.57;;;76.67;;
301;SDS011;135;46.256;20.146;2022-07-23T03:25:27;65.45;;;62.25;;
301;SDS011;135;46.256;20.146;2022-07-23T03:27:55;76.40;;;72.70;;
301;SDS011;135;46.256;20.146;2022-07-23T03:30:22;77.20;;;73.50;;
301;SDS011;135;46.256;20.146;2022-07-23T03:32:49;67.47;;;64.18;;
301;SDS011;135;46.256;20.146;2022-07-23T03:35:26;75.00;;;71.40;;
301;SDS011;135;46.256;20.146;2022-07-23T03:37:54;72.05;;;68.55;;
301;SDS011;135;46.256;20.146;2022-07-23T03:40:23;75.93;;;72.25;;
301;SDS011;135;46.256;20.146;2022-07-23T03:42:50;67.47;;;64.18;;
301;SDS011;135;46.256;20.146;2022-07-23T03:45:17;66.55;;;63.35;;
301;SDS011;135;46.256;20.146;2022-07-23T03:47:45;64.07;;;60.97;;
301;SDS011;135;46.256;20.146;2022-07-23T03:50:12;81.03;;;77.13;;
301;SDS011;135;46.256;20.146;2022-07-23T03:52:39;79.28;;;75.45;;
301;SDS011;135;46.256;20.146;2022-07-23T03:55:07;74.43;;;70.82;;
301;SDS011;135;46.256;20.146;2022-07-23T03:57:36;64.28;;;61.17;;
301;SDS011;135;46.256;20.146;2022-07-23T04:00:04;87.38;;;83.18;;
301;SDS011;135;46.256;20.146;2022-07-23T04:02:33;73.90;;;70.32;;
301;SDS011;135;46.256;20.146;2022-07-23T04:05:00;75.10;;;71.50;;
301;SDS011;135;46.256;20.146;2022-07-23T04:07:28;83.88;;;79.82;;
301;SDS011;135;46.256;20.146;2022-07-23T04:09:55;82.95;;;78.95;;
301;SDS011;135;46.256;20.146;2022-07-23T04:12:22;64.20;;;61.10;;
301;SDS011;135;46.256;20.146;2022-07-23T04:14:51;77.35;;;73.65;;
301;SDS011;135;46.256;20.146;2022-07-23T04:17:19;70.60;;;67.20;;
301;SDS011;135;46.256;20.146;2022-07-23T04:19:46;64.55;;;61.45;;
301;SDS011;135;46.256;20.146;2022-07-23T04:22:13;71.28;;;67.88;;
301;SDS011;135;46.256;20.146;2022-07-23T04:24:40;76.90;;;73.20;;
301;SDS011;135;46.256;20.146;2022-07-23T04:27:08;72.90;;;69.38;;
301;SDS011;135;46.256;20.146;2022-07-23T04:29:35;69.88;;;66.50;;
301;SDS011;135;46.256;20.146;2022-07-23T04:32:04;64.65;;;61.55;;
301;SDS011;135;46.256;20.146;2022-07-23T04:34:32;75.37;;;71.73;;
301;SDS011;135;46.256;20.146;2022-07-23T04:36:59;63.95;;;60.85;;
301;SDS011;135;46.256;20.146;2022-07-23T04:39:26;76.88;;;73.18;;
301;SDS011;135;46.256;20.146;2022-07-23T04:41:54;65.47;;;62.28;;
301;SDS011;135;46.256;20.146;2022-07-23T04:44:21;64.18;;;61.08;;
301;SDS011;135;46.256;20.146;2022-07-23T04:46:48;76.00;;;72.30;;
301;SDS011;135;46.256;20.146;2022-07-23T04:49:17;78.80;;;75.00;;
301;SDS011;135;46.256;20.146;2022-07-23T04:51:44;66.93;;;63.70;;
301;SDS011;135;46.256;20.146;2022-07-23T04:54:12;68.03;;;64.72;;
301;SDS011;135;46.256;20.146;2022-07-23T04:56:39;67.60;;;64.30;;
301;SDS011;135;46.256;20.146;2022-07-23T04:59:06;68.68;;;65.38;;
301;SDS011;135;46.256;20.146;2022-07-23T05:01:34;67.03;;;63.83;;
301;SDS011;135;46.256;20.146;2022-07-23T05:04:01;66.13;;;62.93;;
301;SDS011;135;46.256;20.146;2022-07-23T05:06:30;58.93;;;56.07;;
301;SDS011;135;46.256;20.146;2022-07-23T05:08:58;75.88;;;72.18;;
301;SDS011;135;46.256;20.146;2022-07-23T05:11:25;69.80;;;66.40;;
301;SDS011;135;46.256;20.146;2022-07-23T05:13:52;65.75;;;62.58;;
301;SDS011;135;46.256;20.146;2022-07-23T05:16:20;71.85;;;68.35;;
301;SDS011;135;46.256;20.146;2022-07-23T05:18:47;70.63;;;67.22;;
301;SDS011;135;46.256;20.146;2022-07-23T05:21:14;71.13;;;67.72;;
301;SDS011;135;46.256;20.146;2022-07-23T05:23:43;73.00;;;69.50;;
301;SDS011;135;46.256;20.146;2022-07-23T05:26:11;69.22;;;65.90;;
301;SDS011;135;46.256;20.146;2022-07-23T05:28:38;71.47;;;68.00;;
301;SDS011;135;46.256;20.146;2022-07-23T05:31:05;68.50;;;65.20;;
301;SDS011;135;46.256;20.146;2022-07-23T05:33:33;66.65;;;63.45;;
301;SDS011;135;46.256;20.146;2022-07-23T05:36:00;67.93;;;64.63;;
301;SDS011;135;46.256;20.146;2022-07-23T05:38:28;61.33;;;58.33;;
301;SDS011;135;46.256;20.146;2022-07-23T05:40:57;66.32;;;63.13;;
301;SDS011;135;46.256;20.146;2022-07-23T05:43:24;61.22;;;58.22;;
301;SDS011;135;46.256;20.146;2022-07-23T05:45:52;62.08;;;59.08;;
301;SDS011;135;46.256;20.146;2022-07-23T05:48:19;64.13;;;61.03;;
301;SDS011;135;46.256;20.146;2022-07-23T05:50:47;85.38;;;81.28;;
301;SDS011;135;46.256;20.146;2022-07-23T05:53:14;66.00;;;62.80;;
301;SDS011;135;46.256;20.146;2022-07-23T05:55:41;67.45;;;64.15;;
301;SDS011;135;46.256;20.146;2022-07-23T05:58:10;70.30;;;66.90;;
301;SDS011;135;46.256;20.146;2022-07-23T06:00:37;70.90;;;67.50;;
301;SDS011;135;46.256;20.146;2022-07-23T06:03:05;72.30;;;68.80;;
301;SDS011;135;46.256;20.146;2022-07-23T06:05:32;66.77;;;63.57;;
301;SDS011;135;46.256;20.146;2022-07-23T06:07:59;71.05;;;67.65;;
301;SDS011;135;46.256;20.146;2022-07-23T06:10:27;71.38;;;67.93;;
301;SDS011;135;46.256;20.146;2022-07-23T06:12:55;70.88;;;67.45;;
301;SDS011;135;46.256;20.146;2022-07-23T06:15:23;65.65;;;62.45;;
301;SDS011;135;46.256;20.146;2022-07-23T06:17:51;71.82;;;68.32;;
301;SDS011;135;46.256;20.146;2022-07-23T06:20:18;69.63;;;66.22;;
301;SDS011;135;46.256;20.146;2022-07-23T06:22:45;66.85;;;63.65;;
301;SDS011;135;46.256;20.146;2022-07-23T06:25:13;64.85;;;61.72;;
301;SDS011;135;46.256;20.146;2022-07-23T06:27:41;60.60;;;57.70;;
301;SDS011;135;46.256;20.146;2022-07-23T06:30:09;66.80;;;63.60;;
301;SDS011;135;46.256;20.146;2022-07-23T06:32:38;65.50;;;62.33;;
301;SDS011;135;46.256;20.146;2022-07-23T06:35:05;71.70;;;68.20;;
301;SDS011;135;46.256;20.146;2022-07-23T06:37:33;67.18;;;63.92;;
301;SDS011;135;46.256;20.146;2022-07-23T06:40:00;69.50;;;66.13;;
301;SDS011;135;46.256;20.146;2022-07-23T06:42:27;69.18;;;65.82;;
301;SDS011;135;46.256;20.146;2022-07-23T06:44:55;71.07;;;67.68;;
301;SDS011;135;46.256;20.146;2022-07-23T06:47:22;72.85;;;69.35;;
301;SDS011;135;46.256;20.146;2022-07-23T06:49:51;78.10;;;74.30;;
301;SDS011;135;46.256;20.146;2022-07-23T06:52:18;78.25;;;74.45;;
301;SDS011;135;46.256;20.146;2022-07-23T06:54:45;77.88;;;74.10;;
301;SDS011;135;46.256;20.146;2022-07-23T06:57:13;73.90;;;70.32;;
301;SDS011;135;46.256;20.146;2022-07-23T06:59:40;76.95;;;73.25;;
301;SDS011;135;46.256;20.146;2022-07-23T07:02:07;81.97;;;78.03;;
301;SDS011;135;46.256;20.146;2022-07-23T07:04:35;84.20;;;80.15;;
301;SDS011;135;46.256;20.146;2022-07-23T07:07:03;87.78;;;83.55;;
301;SDS011;135;46.256;20.146;2022-07-23T07:09:31;89.53;;;85.20;;
301;SDS011;135;46.256;20.146;2022-07-23T07:11:58;92.68;;;88.18;;
301;SDS011;135;46.256;20.146;2022-07-23T07:14:25;85.25;;;81.15;;
301;SDS011;135;46.256;20.146;2022-07-23T07:16:53;92.70;;;88.22;;
301;SDS011;135;46.256;20.146;2022-07-23T07:19:20;93.43;;;88.93;;
301;SDS011;135;46.256;20.146;2022-07-23T07:21:48;93.30;;;88.80;;
301;SDS011;135;46.256;20.146;2022-07-23T07:24:17;93.07;;;88.57;;
301;SDS011;135;46.256;20.146;2022-07-23T07:26:44;100.45;;;95.65;;
301;SDS011;135;46.256;20.146;2022-07-23T07:29:11;102.20;;;97.30;;
301;SDS011;135;46.256;20.146;2022-07-23T07:31:39;104.55;;;99.55;;
301;SDS011;135;46.256;20.146;2022-07-23T07:34:06;106.53;;;101.43;;
301;SDS011;135;46.256;20.146;2022-07-23T07:36:33;108.50;;;103.30;;
301;SDS011;135;46.256;20.146;2022-07-23T07:39:02;110.95;;;105.65;;
301;SDS011;135;46.256;20.146;2022-07-23T07:41:31;114.13;;;108.63;;
301;SDS011;135;46.256;20.146;2022-07-23T07:43:58;113.00;;;107.60;;
301;SDS011;135;46.256;20.146;2022-07-23T07:46:26;113.13;;;107.72;;
301;SDS011;135;46.256;20.146;2022-07-23T07:48:53;110.43;;;105.13;;
301;SDS011;135;46.256;20.146;2022-07-23T07:51:20;109.32;;;104.03;;
301;SDS011;135;46.256;20.146;2022-07-23T07:53:48;108.53;;;103.32;;
301;SDS011;135;46.256;20.146;2022-07-23T07:56:15;106.30;;;101.20;;
301;SDS011;135;46.256;20.146;2022-07-23T07:58:44;102.82;;;97.88;;
301;SDS011;135;46.256;20.146;2022-07-23T08:01:11;102.13;;;97.23;;
301;SDS011;135;46.256;20.146;2022-07-23T08:03:38;94.90;;;90.30;;
301;SDS011;135;46.256;20.146;2022-07-23T08:06:06;91.47;;;87.07;;
301;SDS011;135;46.256;20.146;2022-07-23T08:08:34;92.43;;;87.97;;
301;SDS011;135;46.256;20.146;2022-07-23T08:11:01;81.70;;;77.80;;
301;SDS011;135;46.256;20.146;2022-07-23T08:13:29;80.40;;;76.50;;
301;SDS011;135;46.256;20.146;2022-07-23T08:15:57;77.53;;;73.80;;
301;SDS011;135;46.256;20.146;2022-07-23T08:18:25;68.30;;;65.00;;
301;SDS011;135;46.256;20.146;2022-07-23T08:20:52;71.00;;;67.57;;
301;SDS011;135;46.256;20.146;2022-07-23T08:23:19;75.38;;;71.78;;
301;SDS011;135;46.256;20.146;2022-07-23T08:25:46;60.70;;;57.78;;
301;SDS011;135;46.256;20.146;2022-07-23T08:28:14;61.40;;;58.40;;
301;SDS011;135;46.256;20.146;2022-07-23T08:30:42;58.20;;;55.40;;
301;SDS011;135;46.256;20.146;2022-07-23T08:33:11;58.72;;;55.88;;
301;SDS011;135;46.256;20.146;2022-07-23T08:35:40;59.65;;;56.75;;
301;SDS011;135;46.256;20.146;2022-07-23T08:38:08;54.35;;;51.72;;
301;SDS011;135;46.256;20.146;2022-07-23T08:40:36;62.85;;;59.85;;
301;SDS011;135;46.256;20.146;2022-07-23T08:43:04;67.78;;;64.47;;
301;SDS011;135;46.256;20.146;2022-07-23T08:45:35;67.80;;;64.50;;
301;SDS011;135;46.256;20.146;2022-07-23T08:48:03;57.97;;;55.17;;
301;SDS011;135;46.256;20.146;2022-07-23T08:50:33;59.88;;;56.97;;
301;SDS011;135;46.256;20.146;2022-07-23T08:53:02;59.08;;;56.22;;
301;SDS011;135;46.256;20.146;2022-07-23T08:55:32;56.88;;;54.08;;
301;SDS011;135;46.256;20.146;2022-07-23T08:57:59;57.42;;;54.63;;
301;SDS011;135;46.256;20.146;2022-07-23T09:00:27;57.50;;;54.70;;
301;SDS011;135;46.256;20.146;2022-07-23T09:02:55;63.00;;;59.95;;
301;SDS011;135;46.256;20.146;2022-07-23T09:05:22;58.08;;;55.28;;
301;SDS011;135;46.256;20.146;2022-07-23T09:08:07;67.87;;;64.57;;
301;SDS011;135;46.256;20.146;2022-07-23T09:10:45;60.67;;;57.75;;
301;SDS011;135;46.256;20.146;2022-07-23T09:13:23;64.57;;;61.47;;
301;SDS011;135;46.256;20.146;2022-07-23T09:15:51;57.60;;;54.80;;
301;SDS011;135;46.256;20.146;2022-07-23T09:18:20;65.80;;;62.60;;
301;SDS011;135;46.256;20.146;2022-07-23T09:21:04;67.13;;;63.88;;
301;SDS011;135;46.256;20.146;2022-07-23T09:23:37;51.88;;;49.38;;
301;SDS011;135;46.256;20.146;2022-07-23T09:26:16;62.05;;;59.05;;
301;SDS011;135;46.256;20.146;2022-07-23T09:28:51;65.32;;;62.15;;
301;SDS011;135;46.256;20.146;2022-07-23T09:31:19;63.72;;;60.63;;
301;SDS011;135;46.256;20.146;2022-07-23T09:33:46;67.80;;;64.50;;
301;SDS011;135;46.256;20.146;2022-07-23T09:36:13;63.50;;;60.40;;
301;SDS011;135;46.256;20.146;2022-07-23T09:38:51;64.10;;;61.00;;
301;SDS011;135;46.256;20.146;2022-07-23T09:41:19;67.28;;;64.00;;
301;SDS011;135;46.256;20.146;2022-07-23T09:43:46;56.20;;;53.50;;
301;SDS011;135;46.256;20.146;2022-07-23T09:46:17;69.50;;;66.10;;
301;SDS011;135;46.256;20.146;2022-07-23T09:48:44;72.38;;;68.88;;
301;SDS011;135;46.256;20.146;2022-07-23T09:51:12;56.20;;;53.50;;
301;SDS011;135;46.256;20.146;2022-07-23T09:53:40;61.90;;;58.90;;
301;SDS011;135;46.256;20.146;2022-07-23T09:56:09;59.00;;;56.10;;
301;SDS011;135;46.256;20.146;2022-07-23T09:58:38;61.03;;;58.05;;
301;SDS011;135;46.256;20.146;2022-07-23T10:01:12;65.70;;;62.50;;
301;SDS011;135;46.256;20.146;2022-07-23T10:03:40;62.22;;;59.22;;
301;SDS011;135;46.256;20.146;2022-07-23T10:06:08;66.80;;;63.60;;
301;SDS011;135;46.256;20.146;2022-07-23T10:08:36;66.97;;;63.75;;
301;SDS011;135;46.256;20.146;2022-07-23T10:11:04;64.00;;;60.90;;
301;SDS011;135;46.256;20.146;2022-07-23T10:13:33;65.40;;;62.20;;
301;SDS011;135;46.256;20.146;2022-07-23T10:16:18;62.58;;;59.58;;
301;SDS011;135;46.256;20.146;2022-07-23T10:18:45;64.00;;;60.90;;
301;SDS011;135;46.256;20.146;2022-07-23T10:21:16;56.58;;;53.83;;
301;SDS011;135;46.256;20.146;2022-07-23T10:23:51;56.20;;;53.50;;
301;SDS011;135;46.256;20.146;2022-07-23T10:26:27;53.28;;;50.67;;
301;SDS011;135;46.256;20.146;2022-07-23T10:29:05;60.30;;;57.40;;
301;SDS011;135;46.256;20.146;2022-07-23T10:31:37;61.10;;;58.10;;
301;SDS011;135;46.256;20.146;2022-07-23T10:34:07;60.35;;;57.45;;
301;SDS011;135;46.256;20.146;2022-07-23T10:36:40;58.77;;;55.90;;
301;SDS011;135;46.256;20.146;2022-07-23T10:39:15;65.50;;;62.33;;
301;SDS011;135;46.256;20.146;2022-07-23T10:41:44;61.70;;;58.70;;
301;SDS011;135;46.256;20.146;2022-07-23T10:44:14;53.60;;;51.00;;
301;SDS011;135;46.256;20.146;2022-07-23T10:46:54;60.85;;;57.90;;
301;SDS011;135;46.256;20.146;2022-07-23T10:49:34;64.35;;;61.25;;
301;SDS011;135;46.256;20.146;2022-07-23T10:52:18;63.17;;;60.10;;
301;SDS011;135;46.256;20.146;2022-07-23T10:54:45;53.70;;;51.10;;
301;SDS011;135;46.256;20.146;2022-07-23T10:57:14;58.90;;;56.03;;
301;SDS011;135;46.256;20.146;2022-07-23T11:02:29;55.28;;;52.58;;
301;SDS011;135;46.256;20.146;2022-07-23T11:04:59;58.85;;;56.00;;
301;SDS011;135;46.256;20.146;2022-07-23T11:07:26;53.67;;;51.08;;
301;SDS011;135;46.256;20.146;2022-07-23T11:09:53;58.47;;;55.67;;
301;SDS011;135;46.256;20.146;2022-07-23T11:12:34;61.38;;;58.40;;
301;SDS011;135;46.256;20.146;2022-07-23T11:15:02;60.40;;;57.50;;
301;SDS011;135;46.256;20.146;2022-07-23T11:17:32;59.22;;;56.33;;
301;SDS011;135;46.256;20.146;2022-07-23T11:22:49;56.55;;;53.85;;
301;SDS011;135;46.256;20.146;2022-07-23T11:25:30;55.50;;;52.80;;
301;SDS011;135;46.256;20.146;2022-07-23T11:28:07;57.20;;;54.40;;
301;SDS011;135;46.256;20.146;2022-07-23T11:30:39;61.35;;;58.35;;
301;SDS011;135;46.256;20.146;2022-07-23T11:33:18;70.78;;;67.38;;
301;SDS011;135;46.256;20.146;2022-07-23T11:35:46;56.87;;;54.10;;
301;SDS011;135;46.256;20.146;2022-07-23T11:38:14;58.50;;;55.70;;
301;SDS011;135;46.256;20.146;2022-07-23T11:40:43;55.90;;;53.20;;
301;SDS011;135;46.256;20.146;2022-07-23T11:43:11;61.50;;;58.50;;
301;SDS011;135;46.256;20.146;2022-07-23T11:45:39;55.05;;;52.35;;
301;SDS011;135;46.256;20.146;2022-07-23T11:48:07;56.80;;;54.00;;
301;SDS011;135;46.256;20.146;2022-07-23T11:50:36;56.53;;;53.80;;
301;SDS011;135;46.256;20.146;2022-07-23T11:53:04;57.17;;;54.38;;
301;SDS011;135;46.256;20.146;2022-07-23T11:55:31;54.90;;;52.20;;
301;SDS011;135;46.256;20.146;2022-07-23T11:57:58;55.78;;;53.08;;
301;SDS011;135;46.256;20.146;2022-07-23T12:00:26;62.60;;;59.60;;
301;SDS011;135;46.256;20.146;2022-07-23T12:02:58;60.28;;;57.38;;
301;SDS011;135;46.256;20.146;2022-07-23T12:05:26;64.55;;;61.45;;
301;SDS011;135;46.256;20.146;2022-07-23T12:07:56;59.83;;;56.92;;
301;SDS011;135;46.256;20.146;2022-07-23T12:10:26;63.97;;;60.88;;
301;SDS011;135;46.256;20.146;2022-07-23T12:12:54;51.47;;;48.97;;
301;SDS011;135;46.256;20.146;2022-07-23T12:15:23;54.88;;;52.17;;
301;SDS011;135;46.256;20.146;2022-07-23T12:17:51;55.15;;;52.45;;
301;SDS011;135;46.256;20.146;2022-07-23T12:20:21;55.85;;;53.15;;
301;SDS011;135;46.256;20.146;2022-07-23T12:22:50;57.47;;;54.67;;
301;SDS011;135;46.256;20.146;2022-07-23T12:25:19;61.53;;;58.53;;
301;SDS011;135;46.256;20.146;2022-07-23T12:27:58;57.72;;;54.92;;
301;SDS011;135;46.256;20.146;2022-07-23T12:30:26;61.10;;;58.10;;
301;SDS011;135;46.256;20.146;2022-07-23T12:32:54;57.28;;;54.47;;
301;SDS011;135;46.256;20.146;2022-07-23T12:35:22;58.67;;;55.83;;
301;SDS011;135;46.256;20.146;2022-07-23T12:37:50;63.47;;;60.38;;
301;SDS011;135;46.256;20.146;2022-07-23T12:40:28;51.95;;;49.45;;
301;SDS011;135;46.256;20.146;2022-07-23T12:42:57;57.30;;;54.50;;
301;SDS011;135;46.256;20.146;2022-07-23T12:45:25;59.33;;;56.42;;
301;SDS011;135;46.256;20.146;2022-07-23T12:47:53;56.97;;;54.17;;
301;SDS011;135;46.256;20.146;2022-07-23T12:50:30;56.67;;;53.92;;
301;SDS011;135;46.256;20.146;2022-07-23T12:53:02;57.50;;;54.70;;
301;SDS011;135;46.256;20.146;2022-07-23T12:55:31;55.00;;;52.33;;
301;SDS011;135;46.256;20.146;2022-07-23T12:58:05;56.50;;;53.80;;
301;SDS011;135;46.256;20.146;2022-07-23T13:00:34;52.72;;;50.15;;
301;SDS011;135;46.256;20.146;2022-07-23T13:03:25;58.97;;;56.08;;
301;SDS011;135;46.256;20.146;2022-07-23T13:05:52;62.00;;;59.00;;
301;SDS011;135;46.256;20.146;2022-07-23T13:08:20;57.30;;;54.50;;
301;SDS011;135;46.256;20.146;2022-07-23T13:10:49;55.35;;;52.65;;
301;SDS011;135;46.256;20.146;2022-07-23T13:13:17;57.15;;;54.35;;
301;SDS011;135;46.256;20.146;2022-07-23T13:15:44;59.70;;;56.80;;
301;SDS011;135;46.256;20.146;2022-07-23T13:18:11;57.92;;;55.13;;
301;SDS011;135;46.256;20.146;2022-07-23T13:20:39;61.63;;;58.63;;
301;SDS011;135;46.256;20.146;2022-07-23T13:23:06;57.67;;;54.88;;
301;SDS011;135;46.256;20.146;2022-07-23T13:25:34;55.20;;;52.50;;
301;SDS011;135;46.256;20.146;2022-07-23T13:28:03;63.72;;;60.65;;
301;SDS011;135;46.256;20.146;2022-07-23T13:30:30;61.05;;;58.10;;
301;SDS011;135;46.256;20.146;2022-07-23T13:32:58;49.00;;;46.60;;
301;SDS011;135;46.256;20.146;2022-07-23T13:35:25;58.75;;;55.90;;
301;SDS011;135;46.256;20.146;2022-07-23T13:37:53;55.30;;;52.60;;
301;SDS011;135;46.256;20.146;2022-07-23T13:40:20;58.10;;;55.30;;
301;SDS011;135;46.256;20.146;2022-07-23T13:42:48;53.90;;;51.30;;
301;SDS011;135;46.256;20.146;2022-07-23T13:45:16;70.93;;;67.53;;
301;SDS011;135;46.256;20.146;2022-07-23T13:47:44;55.60;;;52.90;;
301;SDS011;135;46.256;20.146;2022-07-23T13:50:11;60.58;;;57.67;;
301;SDS011;135;46.256;20.146;2022-07-23T13:52:41;62.35;;;59.35;;
301;SDS011;135;46.256;20.146;2022-07-23T13:55:08;60.83;;;57.88;;
301;SDS011;135;46.256;20.146;2022-07-23T13:57:36;57.03;;;54.22;;
301;SDS011;135;46.256;20.146;2022-07-23T14:00:04;56.15;;;53.45;;
301;SDS011;135;46.256;20.146;2022-07-23T14:02:35;56.20;;;53.50;;
301;SDS011;135;46.256;20.146;2022-07-23T14:05:03;58.80;;;55.95;;
301;SDS011;135;46.256;20.146;2022-07-23T14:07:30;65.03;;;61.88;;
301;SDS011;135;46.256;20.146;2022-07-23T14:09:58;58.15;;;55.35;;
301;SDS011;135;46.256;20.146;2022-07-23T14:12:25;59.78;;;56.88;;
301;SDS011;135;46.256;20.146;2022-07-23T14:14:53;54.35;;;51.75;;
301;SDS011;135;46.256;20.146;2022-07-23T14:17:20;59.15;;;56.28;;
301;SDS011;135;46.256;20.146;2022-07-23T14:19:49;65.70;;;62.50;;
301;SDS011;135;46.256;20.146;2022-07-23T14:22:17;60.90;;;57.95;;
301;SDS011;135;46.256;20.146;2022-07-23T14:24:44;53.97;;;51.38;;
301;SDS011;135;46.256;20.146;2022-07-23T14:27:12;57.30;;;54.50;;
301;SDS011;135;46.256;20.146;2022-07-23T14:29:39;58.25;;;55.42;;
301;SDS011;135;46.256;20.146;2022-07-23T14:32:06;58.40;;;55.60;;
301;SDS011;135;46.256;20.146;2022-07-23T14:34:34;61.83;;;58.83;;
301;SDS011;135;46.256;20.146;2022-07-23T14:37:02;61.22;;;58.25;;
301;SDS011;135;46.256;20.146;2022-07-23T14:39:30;57.33;;;54.53;;
301;SDS011;135;46.256;20.146;2022-07-23T14:41:57;55.47;;;52.78;;
301;SDS011;135;46.256;20.146;2022-07-23T14:44:24;64.88;;;61.75;;
301;SDS011;135;46.256;20.146;2022-07-23T14:46:52;49.75;;;47.35;;
301;SDS011;135;46.256;20.146;2022-07-23T14:49:19;73.70;;;70.10;;
301;SDS011;135;46.256;20.146;2022-07-23T14:51:47;63.28;;;60.20;;
301;SDS011;135;46.256;20.146;2022-07-23T14:54:15;59.05;;;56.20;;
301;SDS011;135;46.256;20.146;2022-07-23T14:56:43;64.67;;;61.53;;
301;SDS011;135;46.256;20.146;2022-07-23T14:59:10;62.05;;;59.05;;
301;SDS011;135;46.256;20.146;2022-07-23T15:01:38;60.15;;;57.25;;
301;SDS011;135;46.256;20.146;2022-07-23T15:04:05;58.33;;;55.53;;
301;SDS011;135;46.256;20.146;2022-07-23T15:06:33;56.83;;;54.03;;
301;SDS011;135;46.256;20.146;2022-07-23T15:09:00;62.92;;;59.88;;
301;SDS011;135;46.256;20.146;2022-07-23T15:11:29;60.40;;;57.50;;
301;SDS011;135;46.256;20.146;2022-07-23T15:13:59;58.40;;;55.60;;